createdAt,value
2022-11-10T00:00:08.898Z,97085.03
2022-11-10T00:02:35.420Z,97082.56
2022-11-10T00:05:01.861Z,97086.53
2022-11-10T00:07:28.321Z,97096.34
2022-11-10T00:09:54.935Z,97093.72
2022-11-10T00:12:22.120Z,97098.97
2022-11-10T00:15:08.319Z,97094.72
2022-11-10T00:17:38.099Z,97100.28
2022-11-10T00:20:04.684Z,97105.19
2022-11-10T00:22:31.052Z,97105.72
2022-11-10T00:24:57.408Z,97109.63
2022-11-10T00:27:23.811Z,97105.22
2022-11-10T00:29:50.155Z,97111.31
2022-11-10T00:32:16.495Z,97114.53
2022-11-10T00:34:42.932Z,97114.72
2022-11-10T00:37:09.249Z,97110.47
2022-11-10T00:39:35.599Z,97110.13
2022-11-10T00:42:02.256Z,97123.75
2022-11-10T00:44:28.724Z,97127.22
2022-11-10T00:46:55.078Z,97125.38
2022-11-10T00:49:21.394Z,97126.88
2022-11-10T00:51:47.759Z,97120.47
2022-11-10T00:54:14.168Z,97130.81
2022-11-10T00:56:40.499Z,97135.09
2022-11-10T00:59:06.907Z,97146.56
2022-11-10T01:01:33.402Z,97146.56
2022-11-10T01:03:59.748Z,97142.47
2022-11-10T01:06:26.154Z,97150.34
2022-11-10T01:08:52.523Z,97164.59
2022-11-10T01:11:21.064Z,97160.81
2022-11-10T01:13:47.448Z,97166.59
2022-11-10T01:16:19.531Z,97163.28
2022-11-10T01:18:52.953Z,97160.00
2022-11-10T01:21:19.925Z,97169.84
2022-11-10T01:23:46.907Z,97170.28
2022-11-10T01:26:13.930Z,97174.75
2022-11-10T01:28:40.288Z,97169.47
2022-11-10T01:31:08.302Z,97163.41
2022-11-10T01:33:35.039Z,97170.47
2022-11-10T01:36:01.642Z,97172.44
2022-11-10T01:38:29.246Z,97175.72
2022-11-10T01:40:56.815Z,97174.03
2022-11-10T01:43:23.559Z,97181.59
2022-11-10T01:45:50.227Z,97178.16
2022-11-10T01:48:18.990Z,97190.13
2022-11-10T01:50:46.674Z,97195.03
2022-11-10T01:53:17.474Z,97184.19
2022-11-10T01:55:45.062Z,97190.34
2022-11-10T01:58:12.927Z,97190.69
2022-11-10T02:00:39.604Z,97192.97
2022-11-10T02:03:24.646Z,97200.84
2022-11-10T02:05:51.592Z,97190.19
2022-11-10T02:08:18.914Z,97199.56
2022-11-10T02:10:45.435Z,97200.69
2022-11-10T02:13:12.015Z,97205.44
2022-11-10T02:15:38.599Z,97212.97
2022-11-10T02:18:04.981Z,97209.34
2022-11-10T02:20:31.314Z,97209.41
2022-11-10T02:22:57.816Z,97217.31
2022-11-10T02:25:27.457Z,97214.03
2022-11-10T02:27:53.766Z,97213.22
2022-11-10T02:30:23.982Z,97219.59
2022-11-10T02:32:53.059Z,97226.13
2022-11-10T02:35:19.442Z,97232.38
2022-11-10T02:37:45.753Z,97233.34
2022-11-10T02:40:12.260Z,97233.34
2022-11-10T02:42:38.622Z,97228.06
2022-11-10T02:45:05.294Z,97238.50
2022-11-10T02:47:31.674Z,97230.34
2022-11-10T02:49:58.000Z,97226.72
2022-11-10T02:52:24.475Z,97236.88
2022-11-10T02:54:50.796Z,97235.22
2022-11-10T02:57:18.918Z,97243.72
2022-11-10T02:59:45.239Z,97250.19
2022-11-10T03:02:11.688Z,97256.78
2022-11-10T03:04:39.091Z,97262.94
2022-11-10T03:07:05.476Z,97269.00
2022-11-10T03:09:32.055Z,97281.94
2022-11-10T03:11:58.442Z,97281.94
2022-11-10T03:14:24.797Z,97285.56
2022-11-10T03:16:51.183Z,97291.72
2022-11-10T03:19:17.492Z,97295.75
2022-11-10T03:21:43.943Z,97294.81
2022-11-10T03:24:10.319Z,97295.31
2022-11-10T03:26:36.798Z,97300.19
2022-11-10T03:29:03.185Z,97309.97
2022-11-10T03:31:29.653Z,97320.34
2022-11-10T03:33:56.046Z,97321.84
2022-11-10T03:36:22.507Z,97328.78
2022-11-10T03:38:48.854Z,97327.59
2022-11-10T03:41:20.276Z,97332.41
2022-11-10T03:43:47.205Z,97333.19
2022-11-10T03:46:13.574Z,97335.03
2022-11-10T03:48:39.922Z,97340.09
2022-11-10T03:51:06.915Z,97338.44
2022-11-10T03:53:33.372Z,97347.56
2022-11-10T03:56:00.947Z,97352.00
2022-11-10T03:58:27.477Z,97347.81
2022-11-10T04:00:54.693Z,97345.47
2022-11-10T04:03:21.701Z,97347.72
2022-11-10T04:06:06.779Z,97350.56
2022-11-10T04:08:52.860Z,97357.50
2022-11-10T04:11:38.141Z,97356.38
2022-11-10T04:14:30.974Z,97367.84
2022-11-10T04:16:57.794Z,97367.78
2022-11-10T04:19:24.151Z,97382.25
2022-11-10T04:21:50.698Z,97379.53
2022-11-10T04:24:17.108Z,97381.19
2022-11-10T04:26:44.556Z,97384.13
2022-11-10T04:29:11.856Z,97394.31
2022-11-10T04:31:39.404Z,97393.38
2022-11-10T04:34:06.913Z,97397.69
2022-11-10T04:36:34.468Z,97402.78
2022-11-10T04:39:00.868Z,97405.72
2022-11-10T04:41:28.338Z,97409.78
2022-11-10T04:43:55.091Z,97417.78
2022-11-10T04:46:38.227Z,97419.59
2022-11-10T04:49:05.313Z,97412.53
2022-11-10T04:51:34.142Z,97420.03
2022-11-10T04:54:01.267Z,97422.38
2022-11-10T04:56:27.783Z,97425.00
2022-11-10T04:58:54.419Z,97421.13
2022-11-10T05:01:22.060Z,97427.75
2022-11-10T05:03:49.333Z,97436.31
2022-11-10T05:06:15.834Z,97432.44
2022-11-10T05:08:43.305Z,97430.66
2022-11-10T05:11:09.956Z,97433.00
2022-11-10T05:13:36.485Z,97439.75
2022-11-10T05:16:04.503Z,97438.09
2022-11-10T05:18:30.855Z,97446.47
2022-11-10T05:20:57.199Z,97449.66
2022-11-10T05:23:38.435Z,97462.16
2022-11-10T05:26:06.234Z,97461.75
2022-11-10T05:28:32.988Z,97471.38
2022-11-10T05:30:59.832Z,97472.34
2022-11-10T05:33:26.373Z,97476.19
2022-11-10T05:35:52.834Z,97485.00
2022-11-10T05:38:19.249Z,97479.22
2022-11-10T05:40:45.583Z,97486.06
2022-11-10T05:43:11.984Z,97478.78
2022-11-10T05:45:38.376Z,97488.81
2022-11-10T05:48:04.712Z,97505.03
2022-11-10T05:50:31.130Z,97517.13
2022-11-10T05:52:57.450Z,97520.69
2022-11-10T05:55:25.318Z,97533.91
2022-11-10T05:57:52.831Z,97534.88
2022-11-10T06:00:23.684Z,97542.97
2022-11-10T06:02:56.927Z,97534.19
2022-11-10T06:05:26.942Z,97531.97
2022-11-10T06:07:57.375Z,97536.53
2022-11-10T06:10:23.968Z,97540.53
2022-11-10T06:12:50.328Z,97545.41
2022-11-10T06:15:16.955Z,97547.25
2022-11-10T06:17:43.772Z,97550.09
2022-11-10T06:20:10.572Z,97565.22
2022-11-10T06:22:36.916Z,97565.47
2022-11-10T06:25:03.415Z,97566.06
2022-11-10T06:27:30.257Z,97570.31
2022-11-10T06:29:56.623Z,97568.63
2022-11-10T06:32:22.973Z,97577.44
2022-11-10T06:34:49.279Z,97579.72
2022-11-10T06:37:15.630Z,97597.31
2022-11-10T06:39:41.946Z,97600.63
2022-11-10T06:42:08.366Z,97602.09
2022-11-10T06:44:34.688Z,97609.91
2022-11-10T06:47:01.197Z,97616.72
2022-11-10T06:49:27.564Z,97614.00
2022-11-10T06:51:53.891Z,97616.06
2022-11-10T06:54:20.216Z,97619.75
2022-11-10T06:56:46.539Z,97622.59
2022-11-10T06:59:12.877Z,97623.31
2022-11-10T07:01:39.219Z,97634.16
2022-11-10T07:04:19.193Z,97643.72
2022-11-10T07:06:47.147Z,97650.44
2022-11-10T07:09:13.907Z,97655.59
2022-11-10T07:11:40.383Z,97659.63
2022-11-10T07:14:06.691Z,97665.03
2022-11-10T07:16:33.243Z,97657.59
2022-11-10T07:18:59.562Z,97666.81
2022-11-10T07:21:25.930Z,97683.81
2022-11-10T07:23:52.250Z,97680.63
2022-11-10T07:26:18.583Z,97688.94
2022-11-10T07:28:45.049Z,97689.19
2022-11-10T07:31:11.814Z,97694.59
2022-11-10T07:33:38.191Z,97694.47
2022-11-10T07:36:04.755Z,97703.25
2022-11-10T07:38:31.095Z,97695.59
2022-11-10T07:40:57.488Z,97711.13
2022-11-10T07:43:26.038Z,97718.06
2022-11-10T07:45:53.295Z,97718.22
2022-11-10T07:48:19.866Z,97705.31
2022-11-10T07:50:46.307Z,97712.41
2022-11-10T07:53:13.983Z,97702.13
2022-11-10T07:55:41.206Z,97703.56
2022-11-10T07:58:08.009Z,97704.97
2022-11-10T08:00:35.310Z,97699.59
2022-11-10T08:03:05.606Z,97708.22
2022-11-10T08:05:32.725Z,97718.69
2022-11-10T08:08:00.543Z,97723.84
2022-11-10T08:10:27.676Z,97729.66
2022-11-10T08:12:57.746Z,97745.09
2022-11-10T08:15:25.858Z,97740.41
2022-11-10T08:17:52.288Z,97747.97
2022-11-10T08:20:18.646Z,97744.97
2022-11-10T08:22:45.217Z,97746.81
2022-11-10T08:25:11.734Z,97751.44
2022-11-10T08:27:38.071Z,97753.56
2022-11-10T08:30:04.704Z,97760.84
2022-11-10T08:32:31.082Z,97770.69
2022-11-10T08:34:57.797Z,97767.88
2022-11-10T08:37:26.114Z,97773.59
2022-11-10T08:39:52.507Z,97771.97
2022-11-10T08:42:18.820Z,97770.50
2022-11-10T08:44:45.258Z,97770.16
2022-11-10T08:47:11.618Z,97774.44
2022-11-10T08:49:37.951Z,97776.50
2022-11-10T08:52:04.473Z,97779.72
2022-11-10T08:54:30.827Z,97782.69
2022-11-10T08:56:57.260Z,97793.34
2022-11-10T08:59:23.764Z,97800.34
2022-11-10T09:01:50.165Z,97812.88
2022-11-10T09:04:16.612Z,97821.09
2022-11-10T09:06:43.099Z,97813.28
2022-11-10T09:09:09.499Z,97813.84
2022-11-10T09:11:35.820Z,97818.06
2022-11-10T09:14:02.131Z,97816.56
2022-11-10T09:16:28.833Z,97814.31
2022-11-10T09:18:55.162Z,97824.00
2022-11-10T09:21:21.747Z,97838.81
2022-11-10T09:23:48.520Z,97845.69
2022-11-10T09:26:14.847Z,97847.16
2022-11-10T09:28:41.213Z,97849.97
2022-11-10T09:31:07.614Z,97854.41
2022-11-10T09:33:33.910Z,97856.91
2022-11-10T09:36:02.092Z,97859.22
2022-11-10T09:38:28.479Z,97863.97
2022-11-10T09:41:02.501Z,97872.06
2022-11-10T09:43:28.826Z,97879.47
2022-11-10T09:45:57.982Z,97888.06
2022-11-10T09:48:24.830Z,97900.75
2022-11-10T09:50:58.174Z,97898.16
2022-11-10T09:53:27.573Z,97898.81
2022-11-10T09:55:58.012Z,97898.09
2022-11-10T09:58:27.005Z,97898.19
2022-11-10T10:01:02.444Z,97906.56
2022-11-10T10:03:31.196Z,97904.97
2022-11-10T10:06:11.097Z,97911.88
2022-11-10T10:08:40.404Z,97912.13
2022-11-10T10:11:25.392Z,97916.84
2022-11-10T10:14:17.703Z,97922.81
2022-11-10T10:16:52.921Z,97914.09
2022-11-10T10:19:35.550Z,97910.47
2022-11-10T10:22:02.680Z,97903.47
2022-11-10T10:24:32.435Z,97908.16
2022-11-10T10:27:00.280Z,97908.44
2022-11-10T10:29:44.148Z,97905.84
2022-11-10T10:32:13.904Z,97904.69
2022-11-10T10:34:41.145Z,97902.66
2022-11-10T10:37:26.865Z,97915.63
2022-11-10T10:39:55.272Z,97907.81
2022-11-10T10:42:30.217Z,97900.25
2022-11-10T10:45:20.904Z,97908.16
2022-11-10T10:47:49.616Z,97902.56
2022-11-10T10:50:22.829Z,97903.47
2022-11-10T10:53:08.846Z,97895.03
2022-11-10T10:55:36.145Z,97908.44
2022-11-10T10:58:04.259Z,97907.53
2022-11-10T11:00:30.691Z,97919.47
2022-11-10T11:03:11.432Z,97921.38
2022-11-10T11:05:37.793Z,97918.84
2022-11-10T11:08:04.303Z,97924.09
2022-11-10T11:10:35.473Z,97924.03
2022-11-10T11:13:15.756Z,97923.97
2022-11-10T11:15:42.216Z,97919.75
2022-11-10T11:18:16.271Z,97919.41
2022-11-10T11:20:56.214Z,97918.41
2022-11-10T11:23:31.425Z,97923.44
2022-11-10T11:26:00.568Z,97919.94
2022-11-10T11:28:45.719Z,97920.63
2022-11-10T11:31:42.895Z,97926.59
2022-11-10T11:34:32.572Z,97930.47
2022-11-10T11:37:15.296Z,97936.25
2022-11-10T11:40:04.398Z,97927.19
2022-11-10T11:42:39.951Z,97926.78
2022-11-10T11:45:06.287Z,97937.91
2022-11-10T11:47:38.868Z,97922.59
2022-11-10T11:50:14.675Z,97927.13
2022-11-10T11:52:41.230Z,97920.88
2022-11-10T11:55:26.055Z,97925.38
2022-11-10T11:57:52.393Z,97918.28
2022-11-10T12:00:19.964Z,97918.56
2022-11-10T12:03:03.016Z,97923.03
2022-11-10T12:05:36.786Z,97924.09
2022-11-10T12:08:11.711Z,97923.69
2022-11-10T12:10:56.938Z,97930.41
2022-11-10T12:13:44.947Z,97931.72
2022-11-10T12:16:11.373Z,97928.09
2022-11-10T12:18:49.383Z,97925.53
2022-11-10T12:21:22.491Z,97933.28
2022-11-10T12:24:10.244Z,97930.47
2022-11-10T12:26:40.148Z,97927.94
2022-11-10T12:29:18.481Z,97919.75
2022-11-10T12:31:46.700Z,97924.19
2022-11-10T12:34:22.340Z,97916.22
2022-11-10T12:36:50.549Z,97908.97
2022-11-10T12:39:16.902Z,97928.00
2022-11-10T12:41:51.307Z,97918.13
2022-11-10T12:44:29.714Z,97918.50
2022-11-10T12:46:58.037Z,97922.59
2022-11-10T12:49:35.580Z,97928.47
2022-11-10T12:52:06.547Z,97936.22
2022-11-10T12:54:34.634Z,97931.44
2022-11-10T12:57:08.076Z,97930.22
2022-11-10T12:59:36.206Z,97922.63
2022-11-10T13:02:21.535Z,97925.63
2022-11-10T13:05:07.869Z,97917.56
2022-11-10T13:07:34.334Z,97924.97
2022-11-10T13:10:20.125Z,97934.56
2022-11-10T13:13:04.862Z,97937.56
2022-11-10T13:15:37.082Z,97932.03
2022-11-10T13:18:04.015Z,97941.53
2022-11-10T13:20:39.386Z,97946.34
2022-11-10T13:23:23.928Z,97953.97
2022-11-10T13:25:55.214Z,97956.06
2022-11-10T13:28:40.223Z,97962.47
2022-11-10T13:31:25.076Z,97960.38
2022-11-10T13:34:14.767Z,97966.28
2022-11-10T13:36:43.925Z,97973.16
2022-11-10T13:39:19.363Z,97968.47
2022-11-10T13:41:45.683Z,97981.69
2022-11-10T13:44:26.068Z,97978.03
2022-11-10T13:47:12.867Z,97974.50
2022-11-10T13:49:55.724Z,97975.53
2022-11-10T13:52:40.981Z,97976.47
2022-11-10T13:55:16.179Z,97974.09
2022-11-10T13:58:03.277Z,97970.50
2022-11-10T14:00:31.123Z,97960.47
2022-11-10T14:02:58.923Z,97956.53
2022-11-10T14:05:28.138Z,97970.03
2022-11-10T14:08:02.560Z,97960.97
2022-11-10T14:10:47.593Z,97963.19
2022-11-10T14:13:28.999Z,97969.59
2022-11-10T14:15:55.592Z,97967.50
2022-11-10T14:18:25.036Z,97972.13
2022-11-10T14:20:56.835Z,97975.09
2022-11-10T14:23:30.250Z,97976.59
2022-11-10T14:26:00.410Z,97983.66
2022-11-10T14:28:28.031Z,97988.00
2022-11-10T14:30:55.457Z,97994.03
2022-11-10T14:33:23.304Z,97996.16
2022-11-10T14:35:52.966Z,97999.00
2022-11-10T14:38:21.955Z,97998.34
2022-11-10T14:40:49.221Z,98008.34
2022-11-10T14:43:35.669Z,98010.31
2022-11-10T14:46:03.056Z,98005.22
2022-11-10T14:48:33.395Z,98013.53
2022-11-10T14:51:12.960Z,98019.31
2022-11-10T14:53:41.502Z,98017.00
2022-11-10T14:56:14.587Z,98024.00
2022-11-10T14:58:42.380Z,98035.59
2022-11-10T15:01:21.961Z,98038.81
2022-11-10T15:03:48.667Z,98040.78
2022-11-10T15:06:15.431Z,98043.94
2022-11-10T15:08:42.137Z,98044.59
2022-11-10T15:11:28.477Z,98051.81
2022-11-10T15:13:54.800Z,98041.63
2022-11-10T15:16:27.146Z,98035.59
2022-11-10T15:18:55.415Z,98049.25
2022-11-10T15:21:22.925Z,98049.50
2022-11-10T15:23:53.349Z,98063.13
2022-11-10T15:26:25.311Z,98070.63
2022-11-10T15:28:52.092Z,98077.97
2022-11-10T15:31:23.467Z,98072.59
2022-11-10T15:33:51.237Z,98083.78
2022-11-10T15:36:23.643Z,98087.44
2022-11-10T15:39:08.976Z,98084.81
2022-11-10T15:41:36.213Z,98084.81
2022-11-10T15:44:19.190Z,98085.38
2022-11-10T15:46:46.008Z,98088.44
2022-11-10T15:49:32.597Z,98083.31
2022-11-10T15:52:02.484Z,98083.44
2022-11-10T15:54:30.284Z,98083.47
2022-11-10T15:56:56.725Z,98079.59
2022-11-10T15:59:23.081Z,98075.16
2022-11-10T16:01:49.798Z,98077.06
2022-11-10T16:04:16.410Z,98076.00
2022-11-10T16:06:42.793Z,98074.59
2022-11-10T16:09:13.340Z,98081.34
2022-11-10T16:11:43.909Z,98083.13
2022-11-10T16:14:13.050Z,98084.94
2022-11-10T16:16:40.414Z,98080.34
2022-11-10T16:19:06.774Z,98088.38
2022-11-10T16:21:33.333Z,98085.06
2022-11-10T16:23:59.708Z,98081.75
2022-11-10T16:26:26.479Z,98082.25
2022-11-10T16:28:52.811Z,98090.81
2022-11-10T16:31:19.861Z,98096.34
2022-11-10T16:33:46.623Z,98103.41
2022-11-10T16:36:19.914Z,98105.69
2022-11-10T16:38:46.355Z,98109.94
2022-11-10T16:41:14.768Z,98101.78
2022-11-10T16:43:41.092Z,98118.31
2022-11-10T16:46:24.490Z,98106.41
2022-11-10T16:48:55.954Z,98117.69
2022-11-10T16:51:37.398Z,98115.19
2022-11-10T16:54:03.921Z,98121.63
2022-11-10T16:56:30.298Z,98129.22
2022-11-10T16:58:56.993Z,98129.47
2022-11-10T17:01:25.751Z,98134.50
2022-11-10T17:03:54.019Z,98123.78
2022-11-10T17:06:21.513Z,98124.44
2022-11-10T17:08:49.375Z,98122.94
2022-11-10T17:11:16.450Z,98133.00
2022-11-10T17:13:42.831Z,98132.94
2022-11-10T17:16:12.186Z,98133.34
2022-11-10T17:18:38.607Z,98139.91
2022-11-10T17:21:05.871Z,98137.66
2022-11-10T17:23:32.727Z,98140.13
2022-11-10T17:25:59.180Z,98142.38
2022-11-10T17:28:25.491Z,98152.16
2022-11-10T17:30:52.920Z,98148.06
2022-11-10T17:33:19.962Z,98149.41
2022-11-10T17:35:47.467Z,98152.66
2022-11-10T17:38:18.497Z,98155.44
2022-11-10T17:40:44.806Z,98172.09
2022-11-10T17:43:12.388Z,98166.50
2022-11-10T17:45:39.089Z,98169.47
2022-11-10T17:48:05.801Z,98163.06
2022-11-10T17:50:32.471Z,98162.31
2022-11-10T17:53:12.702Z,98172.31
2022-11-10T17:55:39.009Z,98169.47
2022-11-10T17:58:05.509Z,98169.81
2022-11-10T18:00:31.909Z,98166.41
2022-11-10T18:02:58.313Z,98164.00
2022-11-10T18:05:24.687Z,98170.47
2022-11-10T18:07:51.581Z,98172.13
2022-11-10T18:10:18.079Z,98179.94
2022-11-10T18:12:45.484Z,98178.91
2022-11-10T18:15:13.402Z,98184.00
2022-11-10T18:17:40.505Z,98174.88
2022-11-10T18:20:07.314Z,98173.34
2022-11-10T18:22:33.763Z,98168.09
2022-11-10T18:25:00.129Z,98171.66
2022-11-10T18:27:27.137Z,98179.97
2022-11-10T18:29:54.494Z,98184.25
2022-11-10T18:32:21.212Z,98181.91
2022-11-10T18:34:47.574Z,98180.09
2022-11-10T18:37:14.131Z,98178.06
2022-11-10T18:39:40.507Z,98184.63
2022-11-10T18:42:06.890Z,98181.53
2022-11-10T18:44:36.924Z,98187.34
2022-11-10T18:47:04.057Z,98185.78
2022-11-10T18:49:30.489Z,98197.56
2022-11-10T18:51:57.163Z,98201.88
2022-11-10T18:54:23.870Z,98201.56
2022-11-10T18:56:50.837Z,98201.56
2022-11-10T18:59:17.158Z,98205.03
2022-11-10T19:01:43.702Z,98200.94
2022-11-10T19:04:10.917Z,98207.69
2022-11-10T19:06:37.378Z,98209.25
2022-11-10T19:09:04.355Z,98216.13
2022-11-10T19:11:31.531Z,98220.72
2022-11-10T19:13:58.583Z,98229.00
2022-11-10T19:16:25.009Z,98222.78
2022-11-10T19:18:51.430Z,98234.22
2022-11-10T19:21:19.976Z,98241.19
2022-11-10T19:23:46.352Z,98254.41
2022-11-10T19:26:19.364Z,98264.88
2022-11-10T19:28:47.415Z,98261.06
2022-11-10T19:31:15.255Z,98265.56
2022-11-10T19:33:42.577Z,98274.53
2022-11-10T19:36:10.679Z,98283.78
2022-11-10T19:38:37.594Z,98284.56
2022-11-10T19:41:09.106Z,98279.28
2022-11-10T19:43:35.577Z,98272.50
2022-11-10T19:46:03.185Z,98270.50
2022-11-10T19:48:30.788Z,98271.69
2022-11-10T19:50:57.271Z,98274.22
2022-11-10T19:53:24.026Z,98282.56
2022-11-10T19:55:50.904Z,98284.88
2022-11-10T19:58:17.276Z,98295.06
2022-11-10T20:00:47.877Z,98296.16
2022-11-10T20:03:14.601Z,98291.78
2022-11-10T20:05:41.852Z,98299.06
2022-11-10T20:08:12.029Z,98309.31
2022-11-10T20:10:39.021Z,98302.31
2022-11-10T20:13:05.607Z,98309.16
2022-11-10T20:15:32.014Z,98300.22
2022-11-10T20:17:58.493Z,98300.22
2022-11-10T20:20:24.877Z,98314.31
2022-11-10T20:22:51.225Z,98314.22
2022-11-10T20:25:17.560Z,98309.81
2022-11-10T20:27:44.077Z,98313.88
2022-11-10T20:30:10.593Z,98318.38
2022-11-10T20:32:37.048Z,98326.06
2022-11-10T20:35:03.507Z,98323.34
2022-11-10T20:37:33.524Z,98318.53
2022-11-10T20:40:00.036Z,98316.38
2022-11-10T20:42:27.145Z,98313.16
2022-11-10T20:44:54.100Z,98316.81
2022-11-10T20:47:20.578Z,98310.13
2022-11-10T20:49:46.926Z,98316.91
2022-11-10T20:52:13.295Z,98324.19
2022-11-10T20:54:39.654Z,98321.06
2022-11-10T20:57:06.054Z,98325.16
2022-11-10T20:59:32.400Z,98320.56
2022-11-10T21:01:58.800Z,98318.34
2022-11-10T21:04:25.137Z,98322.94
2022-11-10T21:06:51.563Z,98323.38
2022-11-10T21:09:18.065Z,98319.00
2022-11-10T21:12:02.983Z,98313.16
2022-11-10T21:14:29.538Z,98316.25
2022-11-10T21:16:57.910Z,98309.06
2022-11-10T21:19:24.241Z,98323.78
2022-11-10T21:21:51.732Z,98314.00
2022-11-10T21:24:18.057Z,98315.84
2022-11-10T21:26:44.438Z,98315.44
2022-11-10T21:29:11.625Z,98326.72
2022-11-10T21:31:38.472Z,98333.28
2022-11-10T21:34:05.088Z,98329.63
2022-11-10T21:36:31.656Z,98324.94
2022-11-10T21:38:58.752Z,98319.19
2022-11-10T21:41:25.738Z,98318.38
2022-11-10T21:43:52.199Z,98326.50
2022-11-10T21:46:18.941Z,98316.69
2022-11-10T21:48:45.280Z,98308.13
2022-11-10T21:51:12.476Z,98316.06
2022-11-10T21:53:44.729Z,98323.56
2022-11-10T21:56:11.684Z,98321.09
2022-11-10T21:58:38.512Z,98329.94
2022-11-10T22:01:09.846Z,98330.66
2022-11-10T22:03:36.437Z,98328.97
2022-11-10T22:06:04.123Z,98331.78
2022-11-10T22:08:31.019Z,98336.28
2022-11-10T22:11:15.935Z,98327.97
2022-11-10T22:14:00.860Z,98335.88
2022-11-10T22:16:47.543Z,98338.16
2022-11-10T22:19:13.936Z,98330.44
2022-11-10T22:21:40.391Z,98329.97
2022-11-10T22:24:26.596Z,98329.75
2022-11-10T22:26:54.553Z,98327.56
2022-11-10T22:29:27.372Z,98328.66
2022-11-10T22:31:57.975Z,98310.97
2022-11-10T22:34:25.013Z,98318.47
2022-11-10T22:36:52.681Z,98316.66
2022-11-10T22:39:18.987Z,98328.66
2022-11-10T22:42:04.577Z,98333.59
2022-11-10T22:44:30.911Z,98342.53
2022-11-10T22:46:57.224Z,98332.97
2022-11-10T22:49:24.280Z,98339.97
2022-11-10T22:51:51.855Z,98335.56
2022-11-10T22:54:19.569Z,98330.75
2022-11-10T22:56:47.282Z,98341.59
2022-11-10T22:59:14.320Z,98340.56
2022-11-10T23:01:41.658Z,98338.91
2022-11-10T23:04:09.939Z,98342.91
2022-11-10T23:06:36.858Z,98345.94
2022-11-10T23:09:03.428Z,98356.16
2022-11-10T23:11:30.688Z,98348.75
2022-11-10T23:13:57.350Z,98353.59
2022-11-10T23:16:25.793Z,98358.97
2022-11-10T23:18:54.084Z,98354.91
2022-11-10T23:21:21.570Z,98351.75
2022-11-10T23:23:48.601Z,98347.41
2022-11-10T23:26:19.466Z,98340.28
2022-11-10T23:28:46.076Z,98347.84
2022-11-10T23:31:13.750Z,98342.09
2022-11-10T23:33:41.062Z,98336.09
2022-11-10T23:36:08.064Z,98338.44
2022-11-10T23:38:35.152Z,98342.34
2022-11-10T23:41:02.525Z,98343.56
2022-11-10T23:43:29.070Z,98346.00
2022-11-10T23:46:10.828Z,98350.28
2022-11-10T23:48:37.778Z,98353.84
2022-11-10T23:51:04.828Z,98363.97
2022-11-10T23:53:31.427Z,98364.03
2022-11-10T23:55:58.990Z,98365.31
2022-11-10T23:58:25.661Z,98368.00
